Noble, Ohio
Current Conditions -  °F | °C
As of 7:45 AM on Friday 19 Dec 2014 (Local Time) from KCGF Reporting Station
Overcast Overcast  
Wind Chill: 24°   Ceiling: 2000
Heat Index: 32°   Visibility: 10mi
Dew Point: 25°   Wind: 9mph
Humidity: 75%   Direction: 320°NW
Pressure: 30.22"   Gusts: NA
Location:  41.6046°N, 81.5°W
Report Text: KCGF 191245Z 32008KT 10SM OVC020 00/M04 A3022
Loading
Personal Weather Stations






























Interactive Weather Map New forecast layout! Learn more

10-Day Weather Forecast

Advertisements
Track Severe Weather on mobile